Time;durP1;ratioP1;P1;durP2;ratioP2;P2;SDS_P1;SDS_P2;PMS_P1;PMS_P2;Temp;Humidity;BMP_temperature;BMP_pressure;BME280_temperature;BME280_humidity;BME280_pressure;Samples;Min_cycle;Max_cycle;Signal;HPM_P1;HPM_P2
2023/02/25 00:00:47;;;;;;;17.20;3.15;;;;;;;;;;5034711;28;20212;-87
2023/02/25 00:03:18;;;;;;;8.32;2.83;;;;;;;;;;5034582;28;20218;-86
2023/02/25 00:05:45;;;;;;;12.55;3.65;;;;;;;;;;5034618;28;20226;-87
2023/02/25 00:08:17;;;;;;;12.63;3.38;;;;;;;;;;5033961;28;20252;-87
2023/02/25 00:10:44;;;;;;;6.05;2.97;;;;;;;;;;5034310;28;20215;-87
2023/02/25 00:13:12;;;;;;;10.10;3.08;;;;;;;;;;5034523;28;20304;-86
2023/02/25 00:15:42;;;;;;;6.38;2.88;;;;;;;;;;5041723;28;20660;-87
2023/02/25 00:18:09;;;;;;;5.43;2.67;;;;;;;;;;5052803;28;20205;-87
2023/02/25 00:20:41;;;;;;;15.73;3.63;;;;;;;;;;5053604;28;20280;-85
2023/02/25 00:23:08;;;;;;;4.57;2.47;;;;;;;;;;5054335;28;20234;-86
2023/02/25 00:25:37;;;;;;;15.23;3.22;;;;;;;;;;5053859;28;20252;-86
2023/02/25 00:28:05;;;;;;;10.20;3.17;;;;;;;;;;5053307;28;20196;-85
2023/02/25 00:30:33;;;;;;;5.38;2.38;;;;;;;;;;5054087;28;20597;-86
2023/02/25 00:33:00;;;;;;;6.05;2.58;;;;;;;;;;5054027;28;20248;-85
2023/02/25 00:35:28;;;;;;;9.70;3.67;;;;;;;;;;5054078;28;20313;-85
2023/02/25 00:37:56;;;;;;;5.65;2.63;;;;;;;;;;5054078;28;20232;-87
2023/02/25 00:40:23;;;;;;;4.50;2.35;;;;;;;;;;5053944;28;20241;-87
2023/02/25 00:42:52;;;;;;;5.13;2.55;;;;;;;;;;5053643;28;20205;-87
2023/02/25 00:45:20;;;;;;;9.50;2.85;;;;;;;;;;5053131;28;20229;-86
2023/02/25 00:47:47;;;;;;;6.10;2.60;;;;;;;;;;5052224;28;20229;-86
2023/02/25 00:50:15;;;;;;;4.78;2.35;;;;;;;;;;5053236;28;20639;-87
2023/02/25 00:52:42;;;;;;;8.77;3.05;;;;;;;;;;5053743;28;20272;-87
2023/02/25 00:55:10;;;;;;;7.40;3.10;;;;;;;;;;5053590;28;20227;-86
2023/02/25 00:57:38;;;;;;;5.82;2.63;;;;;;;;;;5053867;28;20208;-87
2023/02/25 01:00:15;;;;;;;3.42;2.10;;;;;;;;;;5053382;28;20563;-85
2023/02/25 01:02:44;;;;;;;7.07;2.58;;;;;;;;;;5052819;28;20704;-87
2023/02/25 01:05:11;;;;;;;7.90;2.40;;;;;;;;;;5053682;28;20308;-86
2023/02/25 01:07:39;;;;;;;8.48;2.53;;;;;;;;;;5053579;28;20198;-86
2023/02/25 01:10:09;;;;;;;6.82;2.53;;;;;;;;;;5052932;28;20251;-87
2023/02/25 01:12:37;;;;;;;9.30;2.65;;;;;;;;;;5052633;28;20299;-86
2023/02/25 01:15:07;;;;;;;5.13;2.47;;;;;;;;;;5050195;28;20313;-87
2023/02/25 01:17:35;;;;;;;7.85;3.33;;;;;;;;;;5033336;28;20183;-86
2023/02/25 01:20:11;;;;;;;9.48;2.15;;;;;;;;;;5033053;28;20317;-86
2023/02/25 01:22:40;;;;;;;11.15;2.70;;;;;;;;;;5033612;28;20190;-85
2023/02/25 01:25:12;;;;;;;9.45;2.53;;;;;;;;;;5033495;28;20218;-85
2023/02/25 01:27:40;;;;;;;4.97;2.72;;;;;;;;;;5032776;28;20235;-87
2023/02/25 01:30:11;;;;;;;5.82;2.30;;;;;;;;;;5032148;28;20315;-87
2023/02/25 01:32:39;;;;;;;5.90;2.83;;;;;;;;;;5032739;28;20206;-86
2023/02/25 01:35:07;;;;;;;6.05;2.25;;;;;;;;;;5032788;28;20301;-85
2023/02/25 01:37:34;;;;;;;7.97;3.15;;;;;;;;;;5032695;28;20214;-85
2023/02/25 01:40:03;;;;;;;8.43;2.40;;;;;;;;;;5032545;28;20285;-86
2023/02/25 01:42:31;;;;;;;6.85;2.90;;;;;;;;;;5032847;28;20667;-86
2023/02/25 01:45:30;;;;;;;8.43;3.33;;;;;;;;;;5034602;28;20230;-86
2023/02/25 01:48:08;;;;;;;8.63;2.40;;;;;;;;;;5052672;28;20221;-87
2023/02/25 01:50:44;;;;;;;7.63;2.60;;;;;;;;;;5035403;28;20193;-86
2023/02/25 01:53:11;;;;;;;5.47;1.95;;;;;;;;;;5052696;28;20304;-87
2023/02/25 01:55:41;;;;;;;6.18;4.15;;;;;;;;;;5052584;28;20720;-87
2023/02/25 01:58:09;;;;;;;7.75;2.05;;;;;;;;;;5051444;28;20581;-86
2023/02/25 02:00:38;;;;;;;8.05;2.53;;;;;;;;;;5052518;28;20198;-86
2023/02/25 02:03:14;;;;;;;5.97;2.25;;;;;;;;;;5053217;28;20276;-87
2023/02/25 02:05:56;;;;;;;5.45;2.42;;;;;;;;;;5052965;28;20659;-86
2023/02/25 02:08:25;;;;;;;5.78;2.00;;;;;;;;;;5052167;28;20305;-87
2023/02/25 02:10:52;;;;;;;7.93;2.10;;;;;;;;;;5051997;28;20201;-87
2023/02/25 02:13:20;;;;;;;9.30;3.17;;;;;;;;;;5052750;28;20221;-86
2023/02/25 02:15:59;;;;;;;7.00;2.42;;;;;;;;;;5043817;28;20257;-85
2023/02/25 02:18:29;;;;;;;3.70;1.80;;;;;;;;;;5032122;28;20673;-85
2023/02/25 02:21:11;;;;;;;7.20;2.88;;;;;;;;;;5032502;28;20297;-86
2023/02/25 02:24:08;;;;;;;7.95;2.65;;;;;;;;;;5032523;28;20294;-84
2023/02/25 02:26:52;;;;;;;5.97;2.30;;;;;;;;;;5032632;28;20640;-87
2023/02/25 02:30:10;;;;;;;5.43;2.45;;;;;;;;;;5032023;28;20285;-85
2023/02/25 02:32:43;;;;;;;5.72;2.67;;;;;;;;;;5020162;28;20198;-86
2023/02/25 02:35:18;;;;;;;9.77;2.85;;;;;;;;;;5032364;28;20226;-85
2023/02/25 02:37:57;;;;;;;3.72;2.33;;;;;;;;;;5032563;28;20179;-86
2023/02/25 02:40:38;;;;;;;6.07;2.63;;;;;;;;;;5034640;28;20194;-86
2023/02/25 02:43:16;;;;;;;7.40;2.10;;;;;;;;;;5036995;28;20621;-86
2023/02/25 02:45:49;;;;;;;4.85;2.10;;;;;;;;;;5044924;28;20233;-86
2023/02/25 02:48:21;;;;;;;5.10;2.63;;;;;;;;;;5055711;28;20680;-87
2023/02/25 02:50:52;;;;;;;8.50;3.15;;;;;;;;;;5056353;28;20639;-86
2023/02/25 02:53:24;;;;;;;5.82;2.78;;;;;;;;;;5056146;28;20222;-86
2023/02/25 02:55:56;;;;;;;7.53;2.78;;;;;;;;;;5056599;28;20218;-86
2023/02/25 02:58:28;;;;;;;8.10;2.78;;;;;;;;;;5054560;28;20209;-85
2023/02/25 03:01:01;;;;;;;6.95;2.85;;;;;;;;;;5055974;28;20188;-87
2023/02/25 03:03:41;;;;;;;6.00;3.05;;;;;;;;;;5056056;28;20198;-86
2023/02/25 03:06:12;;;;;;;7.10;2.95;;;;;;;;;;5056136;28;20269;-85
2023/02/25 03:08:44;;;;;;;7.10;2.58;;;;;;;;;;5055661;28;20178;-87
2023/02/25 03:11:12;;;;;;;7.40;2.15;;;;;;;;;;5055321;28;20196;-86
2023/02/25 03:13:40;;;;;;;6.70;2.78;;;;;;;;;;5055668;28;20266;-87
2023/02/25 03:16:13;;;;;;;11.75;2.70;;;;;;;;;;5044320;28;20237;-87
2023/02/25 03:18:47;;;;;;;6.10;2.72;;;;;;;;;;5035217;28;20202;-86
2023/02/25 03:21:20;;;;;;;10.60;3.42;;;;;;;;;;5035860;28;20215;-87
2023/02/25 03:23:48;;;;;;;8.88;3.03;;;;;;;;;;5035948;28;20277;-86
2023/02/25 03:26:23;;;;;;;7.80;2.83;;;;;;;;;;5035887;28;20233;-86
2023/02/25 03:28:51;;;;;;;7.03;2.42;;;;;;;;;;5035193;28;20280;-85
2023/02/25 03:31:22;;;;;;;9.23;2.67;;;;;;;;;;5035642;28;20643;-85
2023/02/25 03:33:54;;;;;;;5.47;2.35;;;;;;;;;;5035718;28;20226;-86
2023/02/25 03:36:26;;;;;;;6.93;2.40;;;;;;;;;;5035653;28;20246;-86
2023/02/25 03:38:58;;;;;;;7.97;2.85;;;;;;;;;;5034971;28;20221;-85
2023/02/25 03:41:30;;;;;;;11.05;3.53;;;;;;;;;;5035470;28;20190;-86
2023/02/25 03:43:59;;;;;;;12.10;2.58;;;;;;;;;;5035598;28;20232;-86
2023/02/25 03:46:27;;;;;;;4.90;2.22;;;;;;;;;;5035226;28;20217;-86
2023/02/25 03:49:00;;;;;;;4.25;2.28;;;;;;;;;;5034754;28;20287;-87
2023/02/25 03:51:35;;;;;;;8.43;2.60;;;;;;;;;;5034735;28;20209;-86
2023/02/25 03:54:02;;;;;;;7.15;2.20;;;;;;;;;;5035550;28;20619;-85
2023/02/25 03:56:30;;;;;;;9.20;2.75;;;;;;;;;;5035279;28;20289;-86
2023/02/25 03:58:58;;;;;;;5.75;2.42;;;;;;;;;;5032637;28;20229;-87
2023/02/25 04:01:29;;;;;;;6.90;2.47;;;;;;;;;;5035281;28;20286;-86
2023/02/25 04:03:58;;;;;;;3.42;2.65;;;;;;;;;;5035889;28;20301;-85
2023/02/25 04:06:26;;;;;;;7.13;3.17;;;;;;;;;;5035469;28;20287;-86
2023/02/25 04:08:53;;;;;;;5.75;3.08;;;;;;;;;;5034566;28;20293;-86
2023/02/25 04:11:21;;;;;;;3.40;2.40;;;;;;;;;;5034909;28;20297;-85
2023/02/25 04:13:49;;;;;;;6.75;3.75;;;;;;;;;;5035070;28;20310;-86
2023/02/25 04:16:16;;;;;;;5.68;2.45;;;;;;;;;;5047987;28;20288;-87
2023/02/25 04:18:44;;;;;;;4.00;1.83;;;;;;;;;;5054184;28;20284;-86
2023/02/25 04:21:28;;;;;;;3.58;1.50;;;;;;;;;;5054433;28;20290;-86
2023/02/25 04:23:56;;;;;;;4.68;1.65;;;;;;;;;;5053962;28;20732;-85
2023/02/25 04:26:24;;;;;;;3.70;1.38;;;;;;;;;;5054514;28;20215;-86
2023/02/25 04:28:51;;;;;;;4.18;1.85;;;;;;;;;;5052090;28;20198;-85
2023/02/25 04:31:19;;;;;;;12.40;2.47;;;;;;;;;;5054567;28;20208;-85
2023/02/25 04:33:48;;;;;;;4.32;2.25;;;;;;;;;;5054621;28;20237;-84
2023/02/25 04:36:29;;;;;;;4.82;2.08;;;;;;;;;;5054957;28;20245;-86
2023/02/25 04:38:57;;;;;;;3.65;2.25;;;;;;;;;;5054380;28;20244;-87
2023/02/25 04:41:27;;;;;;;6.10;2.13;;;;;;;;;;5054509;28;20288;-85
2023/02/25 04:43:55;;;;;;;4.22;2.33;;;;;;;;;;5053964;28;20304;-86
2023/02/25 04:46:22;;;;;;;6.18;1.98;;;;;;;;;;5040351;28;20242;-86
2023/02/25 04:48:50;;;;;;;4.97;2.00;;;;;;;;;;5033461;28;20237;-88
2023/02/25 04:51:17;;;;;;;3.65;1.65;;;;;;;;;;5033770;28;20290;-86
2023/02/25 04:53:46;;;;;;;8.98;1.95;;;;;;;;;;5033962;28;20198;-87
2023/02/25 04:56:14;;;;;;;6.55;1.63;;;;;;;;;;5034525;28;20349;-85
2023/02/25 04:58:42;;;;;;;2.88;1.60;;;;;;;;;;5032638;28;20194;-86
2023/02/25 05:01:10;;;;;;;3.30;2.10;;;;;;;;;;5034423;28;20297;-86
2023/02/25 05:03:39;;;;;;;3.47;1.77;;;;;;;;;;5032989;28;20194;-86
2023/02/25 05:06:08;;;;;;;2.65;1.83;;;;;;;;;;5034204;28;20685;-86
2023/02/25 05:08:36;;;;;;;5.45;1.63;;;;;;;;;;5033210;28;20249;-86
2023/02/25 05:11:06;;;;;;;2.78;1.73;;;;;;;;;;5033439;28;20318;-85
2023/02/25 05:13:33;;;;;;;3.40;1.60;;;;;;;;;;5034071;28;20297;-86
2023/02/25 05:16:07;;;;;;;5.15;2.13;;;;;;;;;;5044511;28;20225;-86
2023/02/25 05:18:37;;;;;;;1.73;1.25;;;;;;;;;;5053694;28;20248;-85
2023/02/25 05:21:06;;;;;;;6.45;2.10;;;;;;;;;;5054135;28;20190;-86
2023/02/25 05:23:34;;;;;;;3.90;1.83;;;;;;;;;;5054264;28;20202;-86
2023/02/25 05:26:01;;;;;;;6.13;2.15;;;;;;;;;;5053937;28;20646;-86
2023/02/25 05:28:30;;;;;;;4.47;1.63;;;;;;;;;;5052972;28;20259;-86
2023/02/25 05:30:58;;;;;;;5.85;2.80;;;;;;;;;;5054606;28;20204;-86
2023/02/25 05:33:26;;;;;;;2.63;1.88;;;;;;;;;;5054401;28;20645;-85
2023/02/25 05:35:53;;;;;;;3.08;1.70;;;;;;;;;;5053145;28;20233;-86
2023/02/25 05:38:21;;;;;;;5.57;1.83;;;;;;;;;;5052741;28;20248;-86
2023/02/25 05:40:48;;;;;;;3.58;2.10;;;;;;;;;;5054065;28;20233;-82
2023/02/25 05:43:16;;;;;;;3.00;2.08;;;;;;;;;;5053581;28;20206;-82
2023/02/25 05:45:45;;;;;;;2.72;1.52;;;;;;;;;;5053940;28;20328;-82
2023/02/25 05:48:12;;;;;;;3.15;1.88;;;;;;;;;;5052453;28;20320;-82
2023/02/25 05:50:40;;;;;;;2.35;1.50;;;;;;;;;;5053565;28;20206;-82
2023/02/25 05:53:08;;;;;;;5.60;1.90;;;;;;;;;;5053655;28;20212;-82
2023/02/25 05:55:40;;;;;;;3.08;2.15;;;;;;;;;;5054522;28;20234;-81
2023/02/25 05:58:08;;;;;;;6.78;1.85;;;;;;;;;;5051932;28;20311;-81
2023/02/25 06:00:35;;;;;;;3.78;2.30;;;;;;;;;;5053674;28;20205;-83
2023/02/25 06:03:05;;;;;;;3.72;2.25;;;;;;;;;;5053531;28;20312;-82
2023/02/25 06:05:33;;;;;;;2.85;1.77;;;;;;;;;;5053458;28;20227;-82
2023/02/25 06:08:00;;;;;;;6.10;2.25;;;;;;;;;;5052851;28;20292;-81
2023/02/25 06:10:28;;;;;;;3.60;2.47;;;;;;;;;;5052865;28;20355;-82
2023/02/25 06:12:55;;;;;;;5.00;1.90;;;;;;;;;;5053193;28;20194;-82
2023/02/25 06:15:23;;;;;;;3.78;2.13;;;;;;;;;;5050133;28;20261;-81
2023/02/25 06:17:50;;;;;;;2.97;2.30;;;;;;;;;;5037611;28;20298;-82
2023/02/25 06:20:20;;;;;;;2.90;2.38;;;;;;;;;;5037627;28;20252;-82
2023/02/25 06:22:47;;;;;;;4.00;2.20;;;;;;;;;;5037997;28;20252;-82
2023/02/25 06:25:15;;;;;;;2.53;2.22;;;;;;;;;;5038056;28;20308;-81
2023/02/25 06:27:42;;;;;;;4.45;2.03;;;;;;;;;;5037625;28;20661;-82
2023/02/25 06:30:11;;;;;;;4.75;2.45;;;;;;;;;;5037274;28;20288;-82
2023/02/25 06:32:39;;;;;;;4.30;2.25;;;;;;;;;;5038042;28;20202;-82
2023/02/25 06:35:07;;;;;;;3.22;1.75;;;;;;;;;;5038082;28;20226;-82
2023/02/25 06:37:36;;;;;;;5.72;2.17;;;;;;;;;;5037861;28;20236;-82
2023/02/25 06:40:06;;;;;;;2.45;2.25;;;;;;;;;;5037144;28;20202;-82
2023/02/25 06:42:34;;;;;;;4.03;1.90;;;;;;;;;;5038536;28;20248;-81
2023/02/25 06:45:01;;;;;;;6.00;1.65;;;;;;;;;;5039807;28;20262;-82
2023/02/25 06:47:29;;;;;;;2.40;1.45;;;;;;;;;;5060081;28;20237;-83
2023/02/25 06:49:56;;;;;;;4.75;1.60;;;;;;;;;;5057592;28;20301;-82
2023/02/25 06:52:24;;;;;;;4.63;1.77;;;;;;;;;;5057517;28;20696;-82
2023/02/25 06:54:53;;;;;;;4.55;1.52;;;;;;;;;;5057725;28;20229;-82
2023/02/25 06:57:21;;;;;;;2.30;1.30;;;;;;;;;;5057828;28;20292;-82
2023/02/25 06:59:48;;;;;;;3.05;1.38;;;;;;;;;;5054226;28;20205;-82
2023/02/25 07:02:16;;;;;;;1.95;1.00;;;;;;;;;;5057121;28;20198;-82
2023/02/25 07:04:43;;;;;;;2.35;1.20;;;;;;;;;;5057565;28;20312;-82
2023/02/25 07:07:11;;;;;;;2.30;1.42;;;;;;;;;;5056836;28;20643;-82
2023/02/25 07:09:38;;;;;;;1.77;1.60;;;;;;;;;;5056330;28;20264;-82
2023/02/25 07:12:07;;;;;;;1.30;1.20;;;;;;;;;;5055725;28;20206;-82
2023/02/25 07:14:35;;;;;;;3.55;1.10;;;;;;;;;;5056531;28;20792;-82
2023/02/25 07:17:02;;;;;;;2.55;1.40;;;;;;;;;;5057015;28;20316;-82
2023/02/25 07:19:30;;;;;;;2.88;1.95;;;;;;;;;;5056245;28;20202;-82
2023/02/25 07:21:57;;;;;;;2.90;1.40;;;;;;;;;;5057101;28;20300;-82
2023/02/25 07:24:25;;;;;;;1.17;1.08;;;;;;;;;;5076502;28;20871;-82
2023/02/25 07:26:54;;;;;;;1.40;1.00;;;;;;;;;;5075483;28;20205;-82
2023/02/25 07:29:23;;;;;;;1.27;1.08;;;;;;;;;;5076509;28;20211;-82
2023/02/25 07:31:50;;;;;;;1.13;0.90;;;;;;;;;;5075987;28;20211;-82
2023/02/25 07:34:18;;;;;;;1.30;1.20;;;;;;;;;;5057904;28;20572;-82
2023/02/25 07:36:45;;;;;;;0.95;0.95;;;;;;;;;;5056036;28;20239;-82
2023/02/25 07:39:13;;;;;;;0.90;0.73;;;;;;;;;;5055846;28;20293;-82
2023/02/25 07:41:40;;;;;;;2.42;1.30;;;;;;;;;;5056781;28;20315;-82
2023/02/25 07:44:09;;;;;;;1.13;1.13;;;;;;;;;;5056034;28;20804;-82
2023/02/25 07:46:38;;;;;;;2.08;1.10;;;;;;;;;;5043888;22;20245;-85
2023/02/25 07:49:05;;;;;;;1.75;1.00;;;;;;;;;;5015864;28;20195;-84
2023/02/25 07:51:33;;;;;;;5.07;1.35;;;;;;;;;;5015281;28;20207;-85
2023/02/25 07:54:01;;;;;;;1.02;0.93;;;;;;;;;;5015980;28;20209;-85
2023/02/25 07:56:30;;;;;;;1.90;1.27;;;;;;;;;;5015548;28;20227;-85
2023/02/25 07:58:58;;;;;;;2.90;1.42;;;;;;;;;;5013863;28;20286;-85
2023/02/25 08:01:28;;;;;;;2.65;1.20;;;;;;;;;;5014568;28;20195;-85
2023/02/25 08:03:59;;;;;;;3.63;1.52;;;;;;;;;;5014859;28;20630;-86
2023/02/25 08:06:28;;;;;;;1.48;1.20;;;;;;;;;;5014998;28;20227;-84
2023/02/25 08:08:55;;;;;;;3.05;1.98;;;;;;;;;;5014094;28;20249;-85
2023/02/25 08:11:24;;;;;;;1.83;1.20;;;;;;;;;;5014059;28;20271;-85
2023/02/25 08:13:52;;;;;;;3.03;1.88;;;;;;;;;;5015068;28;20249;-85
2023/02/25 08:16:20;;;;;;;2.00;1.58;;;;;;;;;;5014452;28;20318;-85
2023/02/25 08:18:49;;;;;;;3.10;2.05;;;;;;;;;;5014209;28;20285;-86
2023/02/25 08:21:20;;;;;;;4.72;1.33;;;;;;;;;;5014698;28;20214;-85
2023/02/25 08:23:48;;;;;;;2.60;1.13;;;;;;;;;;5015381;28;20191;-86
2023/02/25 08:26:16;;;;;;;2.40;2.17;;;;;;;;;;5014608;28;20222;-87
2023/02/25 08:28:44;;;;;;;1.52;1.42;;;;;;;;;;5014070;28;20578;-85
2023/02/25 08:31:12;;;;;;;1.98;1.08;;;;;;;;;;5014059;28;20195;-85
2023/02/25 08:33:42;;;;;;;1.20;1.10;;;;;;;;;;5013966;28;20648;-85
2023/02/25 08:36:11;;;;;;;3.75;1.55;;;;;;;;;;5014377;28;20249;-86
2023/02/25 08:38:40;;;;;;;3.15;1.25;;;;;;;;;;5014227;28;20209;-88
2023/02/25 08:41:08;;;;;;;1.92;1.70;;;;;;;;;;5014769;28;20262;-86
2023/02/25 08:43:37;;;;;;;1.90;1.20;;;;;;;;;;5016615;28;20326;-87
2023/02/25 08:46:05;;;;;;;3.08;1.30;;;;;;;;;;5015854;28;20266;-88
2023/02/25 08:48:33;;;;;;;3.05;1.30;;;;;;;;;;5015258;28;20735;-85
2023/02/25 08:51:07;;;;;;;2.13;0.90;;;;;;;;;;5015340;28;20642;-85
2023/02/25 08:53:35;;;;;;;0.93;0.93;;;;;;;;;;5014492;28;20199;-85
2023/02/25 08:56:05;;;;;;;1.15;0.80;;;;;;;;;;5014263;28;20639;-85
2023/02/25 08:58:33;;;;;;;2.58;1.15;;;;;;;;;;5013851;28;20199;-86
2023/02/25 09:01:01;;;;;;;1.88;1.00;;;;;;;;;;5013798;28;20679;-85
2023/02/25 09:03:28;;;;;;;0.73;0.60;;;;;;;;;;5013930;28;20207;-85
2023/02/25 09:05:57;;;;;;;0.75;0.75;;;;;;;;;;5013775;28;20763;-86
2023/02/25 09:08:26;;;;;;;0.90;0.80;;;;;;;;;;5013958;28;20257;-85
2023/02/25 09:10:54;;;;;;;1.38;1.00;;;;;;;;;;5014106;28;20218;-86
2023/02/25 09:13:23;;;;;;;1.35;0.90;;;;;;;;;;5014091;28;20237;-85
2023/02/25 09:15:57;;;;;;;2.97;1.55;;;;;;;;;;5013869;28;20227;-84
2023/02/25 09:18:24;;;;;;;1.63;1.23;;;;;;;;;;5013490;28;20248;-85
2023/02/25 09:20:52;;;;;;;1.90;1.80;;;;;;;;;;5013086;28;20297;-84
2023/02/25 09:23:20;;;;;;;1.35;1.15;;;;;;;;;;5013446;28;20234;-85
2023/02/25 09:25:47;;;;;;;2.55;1.35;;;;;;;;;;5013864;28;20222;-85
2023/02/25 09:28:15;;;;;;;3.08;1.60;;;;;;;;;;5012844;28;20217;-84
2023/02/25 09:30:45;;;;;;;2.63;1.33;;;;;;;;;;5014005;28;20274;-85
2023/02/25 09:33:13;;;;;;;4.78;1.75;;;;;;;;;;5013243;28;20207;-84
2023/02/25 09:35:41;;;;;;;2.83;1.45;;;;;;;;;;5013751;28;20310;-84
2023/02/25 09:38:08;;;;;;;3.38;1.40;;;;;;;;;;5012817;28;20229;-84
2023/02/25 09:40:36;;;;;;;1.42;1.20;;;;;;;;;;5014572;28;20293;-86
2023/02/25 09:43:25;;;;;;;1.85;1.30;;;;;;;;;;5013196;28;20206;-84
2023/02/25 09:45:54;;;;;;;4.32;2.22;;;;;;;;;;5013636;28;20245;-85
2023/02/25 09:48:26;;;;;;;3.05;1.90;;;;;;;;;;5013366;28;20257;-85
2023/02/25 09:50:57;;;;;;;1.50;1.20;;;;;;;;;;4997593;28;20207;-84
2023/02/25 09:53:30;;;;;;;1.83;1.63;;;;;;;;;;4993413;28;20250;-85
2023/02/25 09:55:58;;;;;;;3.80;1.20;;;;;;;;;;4993167;28;20306;-83
2023/02/25 09:58:31;;;;;;;5.38;1.50;;;;;;;;;;4992713;28;20235;-84
2023/02/25 10:01:06;;;;;;;0.88;0.88;;;;;;;;;;4993316;28;20207;-85
2023/02/25 10:03:54;;;;;;;1.92;1.45;;;;;;;;;;4992681;28;20213;-84
2023/02/25 10:06:28;;;;;;;1.33;1.20;;;;;;;;;;4994192;28;20229;-85
2023/02/25 10:09:06;;;;;;;1.65;1.33;;;;;;;;;;4994015;28;20253;-85
2023/02/25 10:11:47;;;;;;;2.83;1.60;;;;;;;;;;4992811;28;20222;-85
2023/02/25 10:14:31;;;;;;;1.63;1.20;;;;;;;;;;4994969;28;20214;-86
2023/02/25 10:17:05;;;;;;;2.72;1.52;;;;;;;;;;5022917;28;20289;-85
2023/02/25 10:19:48;;;;;;;1.42;1.33;;;;;;;;;;5032708;28;20285;-86
2023/02/25 10:22:41;;;;;;;2.97;1.40;;;;;;;;;;5033220;28;20213;-84
2023/02/25 10:25:13;;;;;;;1.30;1.20;;;;;;;;;;5033721;28;20246;-85
2023/02/25 10:27:48;;;;;;;1.92;1.30;;;;;;;;;;5032764;28;20210;-85
2023/02/25 10:30:19;;;;;;;6.93;2.15;;;;;;;;;;5032907;28;20613;-83
2023/02/25 10:32:48;;;;;;;1.63;1.20;;;;;;;;;;5032393;28;20199;-85
2023/02/25 10:35:21;;;;;;;2.97;1.60;;;;;;;;;;5032532;28;20230;-84
2023/02/25 10:37:49;;;;;;;4.45;1.70;;;;;;;;;;5032789;28;20264;-86
2023/02/25 10:40:19;;;;;;;2.40;2.20;;;;;;;;;;5032563;28;20317;-86
2023/02/25 10:42:53;;;;;;;1.77;1.38;;;;;;;;;;5033758;28;20382;-84
2023/02/25 10:45:26;;;;;;;1.35;1.20;;;;;;;;;;5030110;28;20703;-86
2023/02/25 10:48:06;;;;;;;4.38;1.55;;;;;;;;;;5015658;28;20289;-83
2023/02/25 10:50:34;;;;;;;4.93;1.40;;;;;;;;;;5016682;28;20207;-84
2023/02/25 10:53:03;;;;;;;3.17;1.35;;;;;;;;;;5015313;28;20702;-83
2023/02/25 10:55:50;;;;;;;1.92;1.65;;;;;;;;;;5015175;28;20231;-86
2023/02/25 10:58:30;;;;;;;4.55;1.40;;;;;;;;;;5014409;28;20344;-84
2023/02/25 11:01:02;;;;;;;1.65;1.27;;;;;;;;;;5016479;28;20206;-84
2023/02/25 11:03:35;;;;;;;2.97;1.60;;;;;;;;;;5019288;28;20264;-83
2023/02/25 11:06:20;;;;;;;2.33;1.42;;;;;;;;;;5018737;28;20707;-83
2023/02/25 11:08:47;;;;;;;2.10;1.70;;;;;;;;;;5017773;28;20203;-85
2023/02/25 11:11:19;;;;;;;4.22;1.83;;;;;;;;;;5016988;28;20237;-83
2023/02/25 11:14:01;;;;;;;1.48;1.38;;;;;;;;;;5019451;28;20198;-83
2023/02/25 11:16:29;;;;;;;5.07;2.03;;;;;;;;;;5018683;28;20219;-82
2023/02/25 11:19:01;;;;;;;3.30;1.95;;;;;;;;;;5018338;28;20322;-85
2023/02/25 11:21:33;;;;;;;4.18;1.40;;;;;;;;;;5017317;28;20199;-86
2023/02/25 11:24:04;;;;;;;1.83;1.23;;;;;;;;;;5019556;28;20215;-83
2023/02/25 11:26:36;;;;;;;2.83;1.50;;;;;;;;;;5019127;28;20317;-86
2023/02/25 11:29:09;;;;;;;2.05;1.08;;;;;;;;;;5019973;28;20187;-85
2023/02/25 11:31:39;;;;;;;2.60;1.88;;;;;;;;;;5019866;28;20198;-86
2023/02/25 11:34:16;;;;;;;3.53;2.20;;;;;;;;;;5019133;28;20206;-86
2023/02/25 11:36:44;;;;;;;1.92;1.40;;;;;;;;;;5018877;28;20223;-85
2023/02/25 11:39:18;;;;;;;2.13;1.27;;;;;;;;;;5018187;28;20273;-85
2023/02/25 11:41:47;;;;;;;1.90;1.77;;;;;;;;;;5017781;28;20230;-86
2023/02/25 11:44:28;;;;;;;2.70;1.27;;;;;;;;;;5015986;28;20210;-84
2023/02/25 11:47:14;;;;;;;1.40;1.20;;;;;;;;;;5016673;28;20649;-84
2023/02/25 11:50:07;;;;;;;1.95;1.23;;;;;;;;;;5015786;28;20203;-87
2023/02/25 11:52:41;;;;;;;2.15;1.10;;;;;;;;;;5017841;28;20213;-84
2023/02/25 11:55:20;;;;;;;3.97;1.90;;;;;;;;;;5017288;28;20599;-86
2023/02/25 11:58:01;;;;;;;1.50;1.20;;;;;;;;;;5017343;28;20270;-85
2023/02/25 12:00:35;;;;;;;1.52;1.02;;;;;;;;;;5017619;28;20230;-84
2023/02/25 12:03:45;;;;;;;2.78;1.10;;;;;;;;;;5016291;28;20222;-86
2023/02/25 12:06:53;;;;;;;1.38;1.27;;;;;;;;;;5015944;28;20223;-85
2023/02/25 12:10:04;;;;;;;2.75;1.20;;;;;;;;;;5036143;28;20194;-84
2023/02/25 12:13:07;;;;;;;4.13;1.02;;;;;;;;;;4999735;28;20221;-83
2023/02/25 12:16:06;;;;;;;3.00;1.13;;;;;;;;;;5030732;28;20245;-83
2023/02/25 12:19:07;;;;;;;1.95;1.20;;;;;;;;;;5004422;28;20266;-82
2023/02/25 12:22:13;;;;;;;4.25;1.85;;;;;;;;;;4986274;28;20257;-85
2023/02/25 12:25:11;;;;;;;2.67;1.63;;;;;;;;;;5019403;28;20288;-85
2023/02/25 12:27:55;;;;;;;2.60;1.75;;;;;;;;;;5016790;28;20225;-87
2023/02/25 12:31:14;;;;;;;1.38;1.15;;;;;;;;;;5020127;28;20621;-87
2023/02/25 12:34:08;;;;;;;1.80;1.02;;;;;;;;;;4984740;28;20271;-85
2023/02/25 12:36:53;;;;;;;1.33;1.02;;;;;;;;;;5016685;28;20322;-85
2023/02/25 12:39:49;;;;;;;1.88;1.40;;;;;;;;;;5017184;28;20610;-85
2023/02/25 12:42:47;;;;;;;3.65;1.20;;;;;;;;;;5017215;28;20195;-84
2023/02/25 12:46:05;;;;;;;6.18;2.35;;;;;;;;;;5017165;28;20598;-84
2023/02/25 12:49:14;;;;;;;2.70;1.40;;;;;;;;;;4935942;29;20218;-82
2023/02/25 12:52:07;;;;;;;1.35;1.00;;;;;;;;;;5005815;28;20207;-87
2023/02/25 12:55:39;;;;;;;2.65;1.20;;;;;;;;;;5014757;28;20225;-87
2023/02/25 12:58:26;;;;;;;4.03;1.55;;;;;;;;;;4969988;28;20726;-84
2023/02/25 13:01:14;;;;;;;4.32;1.58;;;;;;;;;;5016082;28;20683;-86
2023/02/25 13:04:29;;;;;;;3.17;1.90;;;;;;;;;;5017648;28;20203;-83
2023/02/25 13:07:44;;;;;;;2.85;1.20;;;;;;;;;;4999016;28;20230;-87
2023/02/25 13:10:39;;;;;;;1.10;1.10;;;;;;;;;;4955663;28;20207;-87
2023/02/25 13:13:30;;;;;;;1.30;1.20;;;;;;;;;;5016963;28;20710;-85
2023/02/25 13:16:07;;;;;;;4.32;1.38;;;;;;;;;;5003780;28;20988;-87
2023/02/25 13:18:47;;;;;;;1.92;1.40;;;;;;;;;;4994232;28;20298;-86
2023/02/25 13:21:32;;;;;;;3.70;1.73;;;;;;;;;;4994679;28;20199;-85
2023/02/25 13:24:13;;;;;;;1.63;1.50;;;;;;;;;;4994957;28;20195;-87
2023/02/25 13:27:34;;;;;;;1.90;1.80;;;;;;;;;;4995735;28;20314;-86
2023/02/25 13:30:24;;;;;;;1.80;1.65;;;;;;;;;;4955138;28;20733;-86
2023/02/25 13:33:05;;;;;;;3.60;1.30;;;;;;;;;;4994838;28;20254;-87
2023/02/25 13:35:42;;;;;;;1.90;1.20;;;;;;;;;;4997855;28;20212;-87
2023/02/25 13:38:34;;;;;;;1.38;1.13;;;;;;;;;;4997472;28;20207;-88
2023/02/25 13:41:36;;;;;;;2.15;1.25;;;;;;;;;;4998305;28;20247;-86
2023/02/25 13:44:24;;;;;;;3.15;1.63;;;;;;;;;;4997248;28;20310;-86
2023/02/25 13:47:10;;;;;;;1.80;1.48;;;;;;;;;;5079880;22;20249;-82
2023/02/25 13:50:21;;;;;;;1.95;1.30;;;;;;;;;;5013803;28;20203;-83
2023/02/25 13:53:04;;;;;;;4.32;1.75;;;;;;;;;;5014518;28;20207;-83
2023/02/25 13:56:02;;;;;;;1.35;1.25;;;;;;;;;;5013486;28;20293;-84
2023/02/25 13:58:46;;;;;;;2.78;1.20;;;;;;;;;;5013661;28;20207;-83
2023/02/25 14:01:25;;;;;;;2.50;1.35;;;;;;;;;;5012111;28;20702;-83
2023/02/25 14:04:39;;;;;;;1.40;1.30;;;;;;;;;;5013495;28;20195;-82
2023/02/25 14:07:31;;;;;;;1.55;1.40;;;;;;;;;;5014027;28;20222;-83
2023/02/25 14:10:17;;;;;;;1.20;1.10;;;;;;;;;;5014568;28;20234;-83
2023/02/25 14:13:00;;;;;;;1.33;1.05;;;;;;;;;;5014469;28;20266;-82
2023/02/25 14:15:47;;;;;;;1.40;1.30;;;;;;;;;;5014498;28;20707;-82
2023/02/25 14:18:56;;;;;;;3.00;1.50;;;;;;;;;;5014035;28;20213;-83
2023/02/25 14:21:59;;;;;;;3.33;1.63;;;;;;;;;;5013524;28;20711;-82
2023/02/25 14:24:34;;;;;;;1.00;1.00;;;;;;;;;;5014199;28;20218;-83
2023/02/25 14:27:15;;;;;;;1.55;1.00;;;;;;;;;;5013921;28;20234;-83
2023/02/25 14:29:55;;;;;;;1.42;1.00;;;;;;;;;;5015492;28;20262;-81
2023/02/25 14:32:41;;;;;;;2.63;1.30;;;;;;;;;;5014650;28;20213;-82
2023/02/25 14:35:46;;;;;;;1.25;1.10;;;;;;;;;;5013706;28;20640;-82
2023/02/25 14:38:17;;;;;;;0.98;0.80;;;;;;;;;;5007279;28;20210;-83
2023/02/25 14:40:55;;;;;;;1.23;1.13;;;;;;;;;;5019093;28;20237;-82
2023/02/25 14:43:32;;;;;;;1.48;1.05;;;;;;;;;;5019223;28;20742;-83
2023/02/25 14:46:06;;;;;;;1.65;1.10;;;;;;;;;;5019729;28;20240;-83
2023/02/25 14:48:43;;;;;;;0.90;0.90;;;;;;;;;;5018348;28;20217;-82
2023/02/25 14:51:40;;;;;;;0.80;0.80;;;;;;;;;;5018870;28;20202;-82
2023/02/25 14:54:48;;;;;;;2.38;1.40;;;;;;;;;;5020135;28;20286;-83
2023/02/25 14:57:39;;;;;;;1.20;1.10;;;;;;;;;;5019721;28;20242;-82
2023/02/25 15:00:57;;;;;;;3.17;2.67;;;;;;;;;;5019082;28;20228;-81
2023/02/25 15:03:43;;;;;;;2.97;2.13;;;;;;;;;;5015877;28;20645;-82
2023/02/25 15:06:44;;;;;;;1.63;1.40;;;;;;;;;;5019177;28;20223;-82
2023/02/25 15:09:52;;;;;;;2.42;2.22;;;;;;;;;;5007457;28;20293;-82
2023/02/25 15:12:39;;;;;;;3.45;3.15;;;;;;;;;;4966085;28;20210;-82
2023/02/25 15:15:38;;;;;;;2.45;2.28;;;;;;;;;;5019145;28;20207;-82
2023/02/25 15:18:36;;;;;;;9.80;5.38;;;;;;;;;;5016796;28;20195;-83
2023/02/25 15:21:37;;;;;;;4.13;1.88;;;;;;;;;;5018579;28;20233;-82
2023/02/25 15:24:11;;;;;;;5.47;3.35;;;;;;;;;;5019682;28;20197;-82
2023/02/25 15:26:45;;;;;;;3.10;2.80;;;;;;;;;;5018943;28;20261;-82
2023/02/25 15:29:36;;;;;;;5.60;4.38;;;;;;;;;;5017855;28;20246;-83
2023/02/25 15:32:16;;;;;;;3.13;2.63;;;;;;;;;;5016895;28;20203;-82